Latest Coastal Weather Observations for Cape Ferguson

IDQ60701

Issued at 11:42 pm EST Tuesday 27 June 2017 (issued every 10 minutes, with the page automatically refreshed every 10 minutes)

About coastal observations | Map of coastal stations | Coastal observations for QLD | Marine services | Other Formats
Station Details ID: 032182 Name: CAPE FERGUSON NTC AWS Lat: -19.28 Lon: 147.06 Height: 0.0 m
Data from the previous 72 hours. | See also: Recent months for locations in Queensland
Date/Time
EST
Temp
°C
Wind Pressure Rain since
9am
mm
Weather Cloud Vis
km
Sea
Height
m
Swell
Dir  Spd
kts
Gust
kts
hPa Trend Height
m
Period
s
Dir
27/11:30pm 21.9 SE 11 13 1019.8 - - - - - - - - -
27/11:00pm 22.0 SE 10 13 1019.9 - - - - - - - - -
27/10:30pm 22.1 SE 11 13 1019.9 - - - - - - - - -
27/10:00pm 22.1 SE 11 13 1020.0 - - - - - - - - -
27/09:30pm 22.1 SE 11 15 1019.9 - - - - - - - - -
27/09:00pm 22.3 ESE 12 15 1019.7 - - - - - - - - -
27/08:30pm 22.4 ESE 12 15 1019.7 - - - - - - - - -
27/08:00pm 22.5 ESE 12 16 1019.6 - - - - - - - - -
27/07:30pm 22.5 ESE 11 15 1019.4 - - - - - - - - -
27/07:00pm 22.6 ESE 12 16 1019.3 - - - - - - - - -
27/06:30pm 22.6 ESE 12 16 1019.1 - - - - - - - - -
27/06:00pm 22.6 ESE 12 15 1018.9 - - - - - - - - -
27/05:30pm 22.6 ESE 12 15 1018.7 - - - - - - - - -
27/05:00pm 22.6 ESE 15 19 1018.6 - - - - - - - - -
27/04:30pm 22.6 ESE 15 19 1018.5 - - - - - - - - -
27/04:00pm 22.6 ESE 13 17 1018.3 - - - - - - - - -
27/03:30pm 22.6 ESE 12 16 1018.2 - - - - - - - - -
27/03:00pm 22.5 ESE 13 15 1018.2 - - - - - - - - -
27/02:30pm 22.5 ESE 15 18 1018.3 - - - - - - - - -
27/02:00pm 22.6 ESE 17 20 1018.2 - - - - - - - - -
27/01:30pm 22.5 ESE 16 19 1018.4 - - - - - - - - -
27/01:00pm 22.6 ESE 18 22 1018.4 - - - - - - - - -
27/12:30pm 22.4 ESE 12 14 1018.8 - - - - - - - - -
27/12:00pm 22.4 ESE 8 11 1019.2 - - - - - - - - -
27/11:30am 22.2 ESE 10 11 1019.6 - - - - - - - - -
27/11:00am 21.9 SE 11 13 1019.9 - - - - - - - - -
27/10:30am 21.6 SE 12 14 1020.1 - - - - - - - - -
27/10:00am 21.1 SE 13 15 1020.1 - - - - - - - - -
27/09:30am 20.8 SE 14 18 1019.9 - - - - - - - - -
27/09:00am 20.6 SSE 15 18 1019.7 - - - - - - - - -
27/08:30am 20.5 SSE 15 18 1019.6 - - - - - - - - -
27/08:00am 20.6 SSE 13 15 1019.4 - - - - - - - - -
27/07:30am 20.5 SSE 10 12 1019.1 - - - - - - - - -
27/07:00am 20.4 S 10 13 1018.8 - - - - - - - - -
27/06:30am 20.3 SSE 10 12 1018.7 - - - - - - - - -
27/06:00am 20.1 SSE 11 14 1018.6 - - - - - - - - -
27/05:30am 20.4 S 8 12 1018.5 - - - - - - - - -
27/05:00am 19.8 SW 3 5 1018.6 - - - - - - - - -
27/04:30am 19.8 WSW 6 11 1018.4 - - - - - - - - -
27/04:00am 19.7 W 6 8 1018.5 - - - - - - - - -
27/03:30am 19.5 WNW 6 9 1018.4 - - - - - - - - -
27/03:00am 19.4 WNW 6 8 1018.3 - - - - - - - - -
27/02:30am 19.4 WSW 3 7 1018.4 - - - - - - - - -
27/02:00am 19.6 WSW 3 6 1018.8 - - - - - - - - -
27/01:30am 19.6 WSW 6 8 1019.0 - - - - - - - - -
27/01:00am 19.8 WSW 4 6 1019.2 - - - - - - - - -
27/12:30am 20.6 SSE 9 11 1019.4 - - - - - - - - -
27/12:00am 21.1 SE 7 9 1019.6 - - - - - - - - -
 
Date/Time
EST
Temp
°C
Wind Pressure Rain since
9am
mm
Weather Cloud Vis
km
Sea
Height
m
Swell
Dir  Spd
kts
Gust
kts
hPa Trend Height
m
Period
s
Dir
26/11:30pm 21.4 SE 9 11 1019.7 - - - - - - - - -
26/11:00pm 22.1 ESE 13 15 1019.9 - - - - - - - - -
26/10:30pm 22.1 SE 7 13 1019.9 - - - - - - - - -
26/10:00pm 21.0 WSW 4 6 1019.7 - - - - - - - - -
26/09:30pm 21.2 SSW 1 3 1019.5 - - - - - - - - -
26/09:00pm 20.7 WNW 4 5 1019.3 - - - - - - - - -
26/08:30pm 20.7 WNW 3 4 1019.1 - - - - - - - - -
26/08:00pm 20.7 NW 3 4 1018.9 - - - - - - - - -
26/07:30pm 22.0 ESE 5 8 1018.6 - - - - - - - - -
26/07:00pm 22.0 E 10 13 1018.5 - - - - - - - - -
26/06:30pm 22.1 E 12 15 1018.3 - - - - - - - - -
26/06:00pm 22.1 E 9 12 1018.1 - - - - - - - - -
26/05:30pm 22.1 E 8 11 1018.0 - - - - - - - - -
26/05:00pm 22.0 E 11 13 1018.0 - - - - - - - - -
26/04:30pm 22.1 E 12 14 1017.7 - - - - - - - - -
26/04:00pm 22.2 E 12 15 1017.5 - - - - - - - - -
26/03:30pm 22.1 E 12 15 1017.6 - - - - - - - - -
26/03:00pm 22.1 E 12 14 1017.5 - - - - - - - - -
26/02:30pm 22.1 E 13 15 1017.7 - - - - - - - - -
26/02:00pm 21.9 E 12 14 1017.9 - - - - - - - - -
26/01:30pm 21.8 E 12 14 1018.3 - - - - - - - - -
26/01:00pm 22.1 E 11 13 1018.4 - - - - - - - - -
26/12:30pm 21.8 E 4 6 1018.7 - - - - - - - - -
26/12:00pm 21.8 SE 1 2 1019.0 - - - - - - - - -
26/11:30am 21.4 SE 4 5 1019.4 - - - - - - - - -
26/11:00am 21.0 SSE 4 6 1019.4 - - - - - - - - -
26/10:30am 20.8 SSE 6 8 1019.7 - - - - - - - - -
26/10:00am 20.6 SSE 7 9 1019.6 - - - - - - - - -
26/09:30am 20.4 SSE 7 9 1019.6 - - - - - - - - -
26/09:00am 20.3 SSE 6 8 1019.5 - - - - - - - - -
26/08:30am 20.1 SSE 5 7 1019.2 - - - - - - - - -
26/08:00am 19.9 SSE 6 7 1018.9 - - - - - - - - -
26/07:30am 19.8 S 6 8 1018.4 - - - - - - - - -
26/07:00am 19.9 SW 3 7 1017.8 - - - - - - - - -
26/06:30am 19.8 SW 4 6 1017.5 - - - - - - - - -
26/06:00am 20.1 SW 5 8 1017.2 - - - - - - - - -
26/05:30am - WNW 5 7 1017.1 - - - - - - - - -
26/05:00am 19.6 W 5 8 1017.0 - - - - - - - - -
26/04:30am 19.9 SSW 7 10 1016.9 - - - - - - - - -
26/04:00am 20.2 S 7 9 1016.9 - - - - - - - - -
26/03:30am 20.2 SSW 6 8 1016.8 - - - - - - - - -
26/03:00am 20.8 S 7 9 1016.9 - - - - - - - - -
26/02:30am 20.9 S 8 10 1016.9 - - - - - - - - -
26/02:00am 21.0 S 6 8 1017.1 - - - - - - - - -
26/01:30am 20.9 S 5 6 1017.4 - - - - - - - - -
26/01:00am 20.5 W 2 4 1017.5 - - - - - - - - -
26/12:30am 20.8 W 3 5 1017.8 - - - - - - - - -
26/12:00am 19.9 WNW 3 5 1017.9 - - - - - - - - -
 
Date/Time
EST
Temp
°C
Wind Pressure Rain since
9am
mm
Weather Cloud Vis
km
Sea
Height
m
Swell
Dir  Spd
kts
Gust
kts
hPa Trend Height
m
Period
s
Dir
25/11:30pm 20.6 W 2 3 1017.9 - - - - - - - - -
25/11:00pm 20.4 WNW 3 5 1018.2 - - - - - - - - -
25/10:30pm 20.3 WNW 3 3 1018.3 - - - - - - - - -
25/10:00pm 20.8 W 2 3 1018.4 - - - - - - - - -
25/09:30pm 20.8 WNW 2 4 1018.4 - - - - - - - - -
25/09:00pm 20.8 WNW 3 4 1018.1 - - - - - - - - -
25/08:30pm 20.9 WSW 1 2 1017.8 - - - - - - - - -
25/08:00pm 21.7 SE 1 3 1017.6 - - - - - - - - -
25/07:30pm 20.7 WNW 2 3 1017.3 - - - - - - - - -
25/07:00pm 21.7 E 2 5 1016.7 - - - - - - - - -
25/06:30pm 22.2 E 9 11 1016.4 - - - - - - - - -
25/06:00pm 22.2 E 9 12 1016.1 - - - - - - - - -
25/05:30pm 22.2 E 9 11 1016.0 - - - - - - - - -
25/05:00pm 22.3 E 8 10 1015.9 - - - - - - - - -
25/04:30pm 22.3 E 9 12 1016.0 - - - - - - - - -
25/04:00pm 22.3 E 11 13 1015.8 - - - - - - - - -
25/03:30pm 22.2 E 12 15 1015.9 - - - - - - - - -
25/03:00pm 22.2 E 12 14 1016.0 - - - - - - - - -
25/02:30pm 22.1 E 10 12 1015.9 - - - - - - - - -
25/02:00pm 22.2 E 10 12 1016.3 - - - - - - - - -
25/01:30pm 22.2 E 9 11 1016.5 - - - - - - - - -
25/01:00pm 21.9 E 5 7 1016.7 - - - - - - - - -
25/12:30pm 22.0 E 3 5 1017.2 - - - - - - - - -
25/12:00pm 21.8 SSE 1 3 1017.4 - - - - - - - - -
25/11:30am 21.7 ESE 3 5 1017.7 - - - - - - - - -
25/11:00am 21.6 SE 6 7 1017.9 - - - - - - - - -
25/10:30am 21.4 SSE 8 10 1018.1 - - - - - - - - -
25/10:00am 21.6 SSE 8 10 1018.3 - - - - - - - - -
25/09:30am 21.3 S 7 9 1018.3 - - - - - - - - -
25/09:00am 21.1 SSE 7 9 1018.0 - - - - - - - - -
25/08:30am 21.0 SSE 5 7 1017.9 - - - - - - - - -
25/08:00am 21.1 SW 2 5 1017.6 - - - - - - - - -
25/07:30am 20.5 WNW 4 6 1017.4 - - - - - - - - -
25/07:00am 20.7 WNW 5 7 1017.0 - - - - - - - - -
25/06:30am 20.6 WSW 2 3 1016.8 - - - - - - - - -
25/06:00am 19.6 WNW 3 5 1016.5 - - - - - - - - -
25/05:30am 20.5 W 2 5 1016.2 - - - - - - - - -
25/05:00am 20.6 WNW 4 5 1016.0 - - - - - - - - -
25/04:30am 20.6 WNW 3 5 1016.1 - - - - - - - - -
25/04:00am 20.8 W 3 5 1016.1 - - - - - - - - -
25/03:30am 20.8 SW 3 5 1016.1 - - - - - - - - -
25/03:00am 20.6 W 3 5 1016.3 - - - - - - - - -
25/02:30am 20.8 W 2 4 1016.6 - - - - - - - - -
25/02:00am 21.4 SSW 4 7 1016.8 - - - - - - - - -
25/01:30am 21.4 SSW 4 6 1016.9 - - - - - - - - -
25/01:00am 20.9 W 3 4 1017.1 - - - - - - - - -
25/12:30am 20.9 W 4 7 1017.2 - - - - - - - - -
25/12:00am 20.8 WNW 5 7 1017.2 - - - - - - - - -

Other Formats:

Comma delimited format used in spreadsheet applications
http://www.bom.gov.au/fwo/IDQ60701/IDQ60701.94297.axf

JavaScript Object Notation format (JSON) in row-major order
http://www.bom.gov.au/fwo/IDQ60701/IDQ60701.94297.json